Costa Pacifica — ICJA — position and weather

sailwx.info

Track history (hours):
 
Tides and Currents Weather Stations Pressure Air Temp Water Temp Dewpoint Dewpoint Depression Visibility Wind Speed Wind Dir Waves Ship Positions

Costa Pacifica

Last reported at 2018-May-20 05:25 UTC. Time now 2018-May-20 21:23 UTC.
Position N 38°42' E 011°59'.

Length 290 m; draft 8.3 m.

Type: Ship. MMSI: 247258100.

Date/timePositionNaut miles runAvg speedWind from/ knotsBaromVisibWave heightAir tempDewpointWater temp
2018-May-20 05:25N 38°42' E 011°59'613.3
2018-May-20 04:59N 38°47' E 012°01'409 8.8
2018-May-18 06:18N 38°60' E 003°16'412.7
2018-May-18 06:00N 38°60' E 003°11'612.8
2018-May-18 05:30N 39°01' E 003°03'612.8
2018-May-18 05:00N 39°01' E 002°55'712.9
2018-May-18 04:30N 39°03' E 002°47'612.9
2018-May-18 04:00N 39°04' E 002°38'713.1
2018-May-18 03:30N 39°05' E 002°30'713.1
2018-May-18 03:00N 39°06' E 002°22'713.4
2018-May-18 02:29N 39°07' E 002°13'613.2
2018-May-18 01:59N 39°09' E 002°05'10811.9
2018-May-17 16:54N 39°26' W 000°13'4 9.6
2018-May-17 16:30N 39°26' W 000°18'1 2.9
2018-May-17 16:00N 39°27' W 000°19'0 0.0
2018-May-17 15:30N 39°27' W 000°19'0 0.0
2018-May-17 15:00N 39°27' W 000°19'0 0.0
2018-May-17 14:30N 39°27' W 000°19'0 0.0
2018-May-17 13:59N 39°27' W 000°19'0 0.0
2018-May-17 13:29N 39°27' W 000°19'0 0.0
2018-May-17 12:59N 39°27' W 000°19'0 0.0
2018-May-17 12:29N 39°27' W 000°19'0 0.0
2018-May-17 11:55N 39°27' W 000°19'0 0.0
2018-May-17 11:28N 39°27' W 000°19'0 0.0
2018-May-17 10:58N 39°27' W 000°19'0 0.0
2018-May-17 10:28N 39°27' W 000°19'0 0.0
2018-May-17 09:52N 39°27' W 000°19'0 0.0
2018-May-17 09:27N 39°27' W 000°19'0 0.0
2018-May-17 08:57N 39°27' W 000°19'0 0.0
2018-May-17 08:30N 39°27' W 000°19'0 0.0
2018-May-17 08:00N 39°27' W 000°19'0 0.0
2018-May-17 07:30N 39°27' W 000°19'0 0.0
2018-May-17 06:59N 39°27' W 000°19'0 0.0
2018-May-17 06:30N 39°27' W 000°19'1 2.6
2018-May-17 06:00N 39°26' W 000°19'4 8.1
2018-May-17 05:30N 39°24' W 000°14'611.4
2018-May-17 05:00N 39°25' W 000°06'10412.8
2018-May-16 20:51N 40°33' E 001°37'613.3
2018-May-16 20:22N 40°39' E 001°40'513.2
2018-May-16 20:01N 40°43' E 001°42'612.8
2018-May-16 19:30N 40°49' E 001°47'612.9
2018-May-16 19:01N 40°53' E 001°53'612.7
2018-May-16 18:30N 40°58' E 001°58'812.7
2018-May-16 17:51N 41°06' E 002°03'412.6
2018-May-16 17:30N 41°09' E 002°06'612.0
2018-May-16 17:00N 41°15' E 002°10'511.0
2018-May-16 16:31N 41°20' E 002°10'1 2.2
2018-May-16 15:59N 41°21' E 002°10'0 0.0
2018-May-16 15:29N 41°21' E 002°10'0 0.0
2018-May-16 14:59N 41°21' E 002°10'0 0.0
2018-May-16 14:28N 41°21' E 002°10'0 0.0
2018-May-16 13:58N 41°21' E 002°10'0 0.0
2018-May-16 13:28N 41°21' E 002°10'0 0.0
2018-May-16 12:58N 41°21' E 002°10'0 0.0
2018-May-16 12:30N 41°21' E 002°10'0 0.0
2018-May-16 12:00N 41°21' E 002°10'0 0.0
2018-May-16 11:30N 41°21' E 002°10'0 0.0
2018-May-16 10:57N 41°21' E 002°10'0 0.0
2018-May-16 10:30N 41°21' E 002°10'0 0.0
2018-May-16 09:59N 41°21' E 002°10'0 0.0
2018-May-16 09:30N 41°21' E 002°10'0 0.0
2018-May-16 09:00N 41°21' E 002°10'0 0.0
2018-May-16 08:30N 41°21' E 002°10'0 0.0
2018-May-16 08:00N 41°21' E 002°10'0 0.0
2018-May-16 07:30N 41°21' E 002°10'0 0.0
2018-May-16 07:00N 41°21' E 002°10'0 0.0
2018-May-16 06:30N 41°21' E 002°10'1 2.7
2018-May-16 06:00N 41°20' E 002°10'5 9.7
2018-May-16 05:30N 41°16' E 002°13'815.5
2018-May-16 05:00N 41°15' E 002°23'1116.4
2018-May-16 04:20N 41°20' E 002°36'13714.6
2018-May-15 18:56N 43°07' E 004°31'716.8
2018-May-15 18:30N 43°08' E 004°41'816.8
2018-May-15 18:00N 43°09' E 004°52'916.7
2018-May-15 17:30N 43°11' E 005°03'917.6
2018-May-15 17:00N 43°16' E 005°13'713.3
2018-May-15 16:30N 43°21' E 005°19'1 1.4
2018-May-15 15:59N 43°21' E 005°20'0 0.0
2018-May-15 15:23N 43°21' E 005°20'0 0.0
2018-May-15 14:50N 43°21' E 005°20'0 0.0
2018-May-15 14:29N 43°21' E 005°20'0 0.0
2018-May-15 13:49N 43°21' E 005°20'0 0.0
2018-May-15 13:19N 43°21' E 005°20'0 0.0
2018-May-15 12:55N 43°21' E 005°20'0 0.0
2018-May-15 12:16N 43°21' E 005°20'0 0.0
2018-May-15 11:45N 43°21' E 005°20'0 0.0
2018-May-15 11:27N 43°21' E 005°20'0 0.0
2018-May-15 10:54N 43°21' E 005°20'0 0.0
2018-May-15 10:21N 43°21' E 005°20'0 0.0
2018-May-15 09:57N 43°21' E 005°20'0 0.0
2018-May-15 09:26N 43°21' E 005°20'0 0.0
2018-May-15 08:56N 43°21' E 005°20'0 0.0
2018-May-15 08:20N 43°21' E 005°20'0 0.0
2018-May-15 07:56N 43°21' E 005°20'0 0.0
2018-May-15 07:29N 43°21' E 005°20'0 0.0
2018-May-15 06:58N 43°21' E 005°20'0 0.3
2018-May-15 06:30N 43°21' E 005°20'2 3.9
2018-May-15 06:00N 43°21' E 005°17'510.2
2018-May-15 05:30N 43°17' E 005°14'7512.5
2018-May-14 23:32N 43°08' E 006°56'413.8
2018-May-14 23:16N 43°10' E 006°60'413.9
2018-May-14 23:00N 43°13' E 007°04'714.1
2018-May-14 22:30N 43°17' E 007°11'714.1
2018-May-14 22:00N 43°21' E 007°19'5368.5
2018-May-14 22:00N 43°24' E 007°24'2 4.7 060 / 81005.010.8 14.0 13.0
2018-May-14 21:30N 43°25' E 007°27'3713.9
2018-May-14 18:52N 43°47' E 008°07'514.2
2018-May-14 18:30N 43°50' E 008°13'713.6
2018-May-14 18:00N 43°55' E 008°20'613.2
2018-May-14 17:30N 44°01' E 008°24'612.8
2018-May-14 17:00N 44°06' E 008°28'612.7
2018-May-14 16:30N 44°12' E 008°32'611.4
2018-May-14 16:00N 44°18' E 008°32'2 4.0
2018-May-14 15:30N 44°19' E 008°29'0 0.2
2018-May-14 15:00N 44°19' E 008°29'0 0.0
2018-May-14 14:29N 44°19' E 008°29'0 0.0
2018-May-14 13:59N 44°19' E 008°29'0 0.0
2018-May-14 13:29N 44°19' E 008°29'0 0.0
2018-May-14 12:59N 44°19' E 008°29'0 0.0
2018-May-14 12:29N 44°19' E 008°29'0 0.0
2018-May-14 11:58N 44°19' E 008°29'0 0.0
2018-May-14 11:28N 44°19' E 008°29'0 0.0
2018-May-14 10:58N 44°19' E 008°29'0 0.0
2018-May-14 10:28N 44°19' E 008°29'0 0.0
2018-May-14 09:58N 44°19' E 008°29'0 0.0
2018-May-14 09:30N 44°19' E 008°29'0 0.0
2018-May-14 09:00N 44°19' E 008°29'0 0.0
2018-May-14 08:30N 44°19' E 008°29'0 0.0
2018-May-14 08:00N 44°19' E 008°29'0 0.0
2018-May-14 07:29N 44°19' E 008°29'0 0.0
2018-May-14 06:59N 44°19' E 008°29'0 0.0
2018-May-14 06:29N 44°19' E 008°29'0 0.6
2018-May-14 06:00N 44°19' E 008°29'3 5.3
2018-May-14 05:30N 44°18' E 008°33'917.5
2018-May-14 05:00N 44°14' E 008°44'918.4
2018-May-14 04:30N 44°09' E 008°55'918.4
2018-May-14 04:00N 44°04' E 009°06'918.9
2018-May-14 03:30N 43°59' E 009°17'918.7
2018-May-14 03:00N 43°53' E 009°27'917.2
2018-May-14 02:30N 43°46' E 009°33'918.2
2018-May-14 02:00N 43°37' E 009°35'918.0
2018-May-14 01:30N 43°28' E 009°36'918.1
2018-May-14 01:00N 43°19' E 009°37'918.0
2018-May-14 00:30N 43°10' E 009°38'918.2
2018-May-14 00:00N 43°01' E 009°39'1017.8
2018-May-13 23:27N 42°52' E 009°45'1218.1
2018-May-13 22:49N 42°45' E 009°58'918.4
2018-May-13 22:20N 42°40' E 010°08'618.4
2018-May-13 22:00N 42°37' E 010°15'1018.2
2018-May-13 21:27N 42°31' E 010°25'1 2.6
2018-May-13 21:00N 42°30' E 010°24'64 3.2 210 / 281005.010.8 18.0 15.0
2018-May-13 01:00N 41°30' E 009°54'7023.3 180 / 101010.0 5.4 17.013.517.0
2018-May-12 22:00N 41°12' E 008°24'6 7.4 100 / 101008.010.8 18.0 13.0
2018-May-12 21:11N 41°14' E 008°17'1318.6
2018-May-12 20:30N 41°08' E 008°02'14819.7
2018-May-12 13:00N 39°48' E 005°18'6716.8 160 / 241014.010.8 18.014.616.0
2018-May-12 09:00N 39°18' E 004°00'959.0 150 / 101010.010.8 17.0 13.0
2018-May-12 08:50N 39°12' E 003°51'719.8
2018-May-12 08:30N 39°09' E 003°43'1020.9
2018-May-12 08:00N 39°04' E 003°32'1021.0
2018-May-12 07:30N 38°58' E 003°20'1020.8
2018-May-12 07:00N 38°53' E 003°09'1120.6
2018-May-12 06:27N 38°47' E 002°56'920.9
2018-May-12 06:00N 38°42' E 002°46'1320.9
2018-May-12 05:24N 38°36' E 002°32'921.1
2018-May-12 04:58N 38°31' E 002°22'1021.2
2018-May-12 04:30N 38°26' E 002°11'7220.4
2018-May-12 01:00N 37°48' E 000°54'2124.3 1017.0 5.4 18.016.316.0
2018-May-12 00:09N 37°38' E 000°31'321.5
2018-May-12 00:00N 37°37' E 000°28'1121.2
2018-May-11 23:28N 37°31' E 000°16'1020.9
2018-May-11 23:00N 37°26' E 000°05'1120.7
2018-May-11 22:29N 37°20' W 000°07'2020.9
2018-May-11 21:31N 37°10' W 000°28'721.2
2018-May-11 21:11N 37°07' W 000°36'421.4
2018-May-11 21:00N 37°04' W 000°40'8656.9
2018-May-11 21:00N 37°06' W 000°30'1937.2 180 / 81011.010.8 18.0 13.0
2018-May-11 20:29N 36°59' W 000°52'1221.0
2018-May-11 19:55N 36°53' W 001°05'23634.0
2018-May-11 13:00N 36°30' E 003°48'43437.7 230 / 91017.010.8 18.016.316.0
2018-May-11 01:29N 36°04' W 005°10'919.9
2018-May-11 01:00N 35°60' W 005°20'23219.3
2018-May-10 13:00N 34°42' W 009°48'   360 / 221016.010.8 16.012.414.0
Track history (hours):
 
Tides and Currents Weather Stations Pressure Air Temp Water Temp Dewpoint Dewpoint Depression Visibility Wind Speed Wind Dir Waves Ship Positions

Costa Pacifica

Last reported at 2018-May-20 05:25 UTC. Time now 2018-May-20 21:23 UTC.
Position N 38°42' E 011°59'.

Length 290 m; draft 8.3 m.

Type: Ship. MMSI: 247258100.

Date/timePositionNaut miles runAvg speedWind from/ knotsBaromVisibWave heightAir tempDewpointWater temp
2018-May-20 05:25N 38°42' E 011°59'613.3
2018-May-20 04:59N 38°47' E 012°01'409 8.8
2018-May-18 06:18N 38°60' E 003°16'412.7
2018-May-18 06:00N 38°60' E 003°11'612.8
2018-May-18 05:30N 39°01' E 003°03'612.8
2018-May-18 05:00N 39°01' E 002°55'712.9
2018-May-18 04:30N 39°03' E 002°47'612.9
2018-May-18 04:00N 39°04' E 002°38'713.1
2018-May-18 03:30N 39°05' E 002°30'713.1
2018-May-18 03:00N 39°06' E 002°22'713.4
2018-May-18 02:29N 39°07' E 002°13'613.2
2018-May-18 01:59N 39°09' E 002°05'10811.9
2018-May-17 16:54N 39°26' W 000°13'4 9.6
2018-May-17 16:30N 39°26' W 000°18'1 2.9
2018-May-17 16:00N 39°27' W 000°19'0 0.0
2018-May-17 15:30N 39°27' W 000°19'0 0.0
2018-May-17 15:00N 39°27' W 000°19'0 0.0
2018-May-17 14:30N 39°27' W 000°19'0 0.0
2018-May-17 13:59N 39°27' W 000°19'0 0.0
2018-May-17 13:29N 39°27' W 000°19'0 0.0
2018-May-17 12:59N 39°27' W 000°19'0 0.0
2018-May-17 12:29N 39°27' W 000°19'0 0.0
2018-May-17 11:55N 39°27' W 000°19'0 0.0
2018-May-17 11:28N 39°27' W 000°19'0 0.0
2018-May-17 10:58N 39°27' W 000°19'0 0.0
2018-May-17 10:28N 39°27' W 000°19'0 0.0
2018-May-17 09:52N 39°27' W 000°19'0 0.0
2018-May-17 09:27N 39°27' W 000°19'0 0.0
2018-May-17 08:57N 39°27' W 000°19'0 0.0
2018-May-17 08:30N 39°27' W 000°19'0 0.0
2018-May-17 08:00N 39°27' W 000°19'0 0.0
2018-May-17 07:30N 39°27' W 000°19'0 0.0
2018-May-17 06:59N 39°27' W 000°19'0 0.0
2018-May-17 06:30N 39°27' W 000°19'1 2.6
2018-May-17 06:00N 39°26' W 000°19'4 8.1
2018-May-17 05:30N 39°24' W 000°14'611.4
2018-May-17 05:00N 39°25' W 000°06'10412.8
2018-May-16 20:51N 40°33' E 001°37'613.3
2018-May-16 20:22N 40°39' E 001°40'513.2
2018-May-16 20:01N 40°43' E 001°42'612.8
2018-May-16 19:30N 40°49' E 001°47'612.9
2018-May-16 19:01N 40°53' E 001°53'612.7
2018-May-16 18:30N 40°58' E 001°58'812.7
2018-May-16 17:51N 41°06' E 002°03'412.6
2018-May-16 17:30N 41°09' E 002°06'612.0
2018-May-16 17:00N 41°15' E 002°10'511.0
2018-May-16 16:31N 41°20' E 002°10'1 2.2
2018-May-16 15:59N 41°21' E 002°10'0 0.0
2018-May-16 15:29N 41°21' E 002°10'0 0.0
2018-May-16 14:59N 41°21' E 002°10'0 0.0
2018-May-16 14:28N 41°21' E 002°10'0 0.0
2018-May-16 13:58N 41°21' E 002°10'0 0.0
2018-May-16 13:28N 41°21' E 002°10'0 0.0
2018-May-16 12:58N 41°21' E 002°10'0 0.0
2018-May-16 12:30N 41°21' E 002°10'0 0.0
2018-May-16 12:00N 41°21' E 002°10'0 0.0
2018-May-16 11:30N 41°21' E 002°10'0 0.0
2018-May-16 10:57N 41°21' E 002°10'0 0.0
2018-May-16 10:30N 41°21' E 002°10'0 0.0
2018-May-16 09:59N 41°21' E 002°10'0 0.0
2018-May-16 09:30N 41°21' E 002°10'0 0.0
2018-May-16 09:00N 41°21' E 002°10'0 0.0
2018-May-16 08:30N 41°21' E 002°10'0 0.0
2018-May-16 08:00N 41°21' E 002°10'0 0.0
2018-May-16 07:30N 41°21' E 002°10'0 0.0
2018-May-16 07:00N 41°21' E 002°10'0 0.0
2018-May-16 06:30N 41°21' E 002°10'1 2.7
2018-May-16 06:00N 41°20' E 002°10'5 9.7
2018-May-16 05:30N 41°16' E 002°13'815.5
2018-May-16 05:00N 41°15' E 002°23'1116.4
2018-May-16 04:20N 41°20' E 002°36'13714.6
2018-May-15 18:56N 43°07' E 004°31'716.8
2018-May-15 18:30N 43°08' E 004°41'816.8
2018-May-15 18:00N 43°09' E 004°52'916.7
2018-May-15 17:30N 43°11' E 005°03'917.6
2018-May-15 17:00N 43°16' E 005°13'713.3
2018-May-15 16:30N 43°21' E 005°19'1 1.4
2018-May-15 15:59N 43°21' E 005°20'0 0.0
2018-May-15 15:23N 43°21' E 005°20'0 0.0
2018-May-15 14:50N 43°21' E 005°20'0 0.0
2018-May-15 14:29N 43°21' E 005°20'0 0.0
2018-May-15 13:49N 43°21' E 005°20'0 0.0
2018-May-15 13:19N 43°21' E 005°20'0 0.0
2018-May-15 12:55N 43°21' E 005°20'0 0.0
2018-May-15 12:16N 43°21' E 005°20'0 0.0
2018-May-15 11:45N 43°21' E 005°20'0 0.0
2018-May-15 11:27N 43°21' E 005°20'0 0.0
2018-May-15 10:54N 43°21' E 005°20'0 0.0
2018-May-15 10:21N 43°21' E 005°20'0 0.0
2018-May-15 09:57N 43°21' E 005°20'0 0.0
2018-May-15 09:26N 43°21' E 005°20'0 0.0
2018-May-15 08:56N 43°21' E 005°20'0 0.0
2018-May-15 08:20N 43°21' E 005°20'0 0.0
2018-May-15 07:56N 43°21' E 005°20'0 0.0
2018-May-15 07:29N 43°21' E 005°20'0 0.0
2018-May-15 06:58N 43°21' E 005°20'0 0.3
2018-May-15 06:30N 43°21' E 005°20'2 3.9
2018-May-15 06:00N 43°21' E 005°17'510.2
2018-May-15 05:30N 43°17' E 005°14'7512.5
2018-May-14 23:32N 43°08' E 006°56'413.8
2018-May-14 23:16N 43°10' E 006°60'413.9
2018-May-14 23:00N 43°13' E 007°04'714.1
2018-May-14 22:30N 43°17' E 007°11'714.1
2018-May-14 22:00N 43°21' E 007°19'5368.5
2018-May-14 22:00N 43°24' E 007°24'2 4.7 060 / 81005.010.8 14.0 13.0
2018-May-14 21:30N 43°25' E 007°27'3713.9
2018-May-14 18:52N 43°47' E 008°07'514.2
2018-May-14 18:30N 43°50' E 008°13'713.6
2018-May-14 18:00N 43°55' E 008°20'613.2
2018-May-14 17:30N 44°01' E 008°24'612.8
2018-May-14 17:00N 44°06' E 008°28'612.7
2018-May-14 16:30N 44°12' E 008°32'611.4
2018-May-14 16:00N 44°18' E 008°32'2 4.0
2018-May-14 15:30N 44°19' E 008°29'0 0.2
2018-May-14 15:00N 44°19' E 008°29'0 0.0
2018-May-14 14:29N 44°19' E 008°29'0 0.0
2018-May-14 13:59N 44°19' E 008°29'0 0.0
2018-May-14 13:29N 44°19' E 008°29'0 0.0
2018-May-14 12:59N 44°19' E 008°29'0 0.0
2018-May-14 12:29N 44°19' E 008°29'0 0.0
2018-May-14 11:58N 44°19' E 008°29'0 0.0
2018-May-14 11:28N 44°19' E 008°29'0 0.0
2018-May-14 10:58N 44°19' E 008°29'0 0.0
2018-May-14 10:28N 44°19' E 008°29'0 0.0
2018-May-14 09:58N 44°19' E 008°29'0 0.0
2018-May-14 09:30N 44°19' E 008°29'0 0.0
2018-May-14 09:00N 44°19' E 008°29'0 0.0
2018-May-14 08:30N 44°19' E 008°29'0 0.0
2018-May-14 08:00N 44°19' E 008°29'0 0.0
2018-May-14 07:29N 44°19' E 008°29'0 0.0
2018-May-14 06:59N 44°19' E 008°29'0 0.0
2018-May-14 06:29N 44°19' E 008°29'0 0.6
2018-May-14 06:00N 44°19' E 008°29'3 5.3
2018-May-14 05:30N 44°18' E 008°33'917.5
2018-May-14 05:00N 44°14' E 008°44'918.4
2018-May-14 04:30N 44°09' E 008°55'918.4
2018-May-14 04:00N 44°04' E 009°06'918.9
2018-May-14 03:30N 43°59' E 009°17'918.7
2018-May-14 03:00N 43°53' E 009°27'917.2
2018-May-14 02:30N 43°46' E 009°33'918.2
2018-May-14 02:00N 43°37' E 009°35'918.0
2018-May-14 01:30N 43°28' E 009°36'918.1
2018-May-14 01:00N 43°19' E 009°37'918.0
2018-May-14 00:30N 43°10' E 009°38'918.2
2018-May-14 00:00N 43°01' E 009°39'1017.8
2018-May-13 23:27N 42°52' E 009°45'1218.1
2018-May-13 22:49N 42°45' E 009°58'918.4
2018-May-13 22:20N 42°40' E 010°08'618.4
2018-May-13 22:00N 42°37' E 010°15'1018.2
2018-May-13 21:27N 42°31' E 010°25'1 2.6
2018-May-13 21:00N 42°30' E 010°24'64 3.2 210 / 281005.010.8 18.0 15.0
2018-May-13 01:00N 41°30' E 009°54'7023.3 180 / 101010.0 5.4 17.013.517.0
2018-May-12 22:00N 41°12' E 008°24'6 7.4 100 / 101008.010.8 18.0 13.0
2018-May-12 21:11N 41°14' E 008°17'1318.6
2018-May-12 20:30N 41°08' E 008°02'14819.7
2018-May-12 13:00N 39°48' E 005°18'6716.8 160 / 241014.010.8 18.014.616.0
2018-May-12 09:00N 39°18' E 004°00'959.0 150 / 101010.010.8 17.0 13.0
2018-May-12 08:50N 39°12' E 003°51'719.8
2018-May-12 08:30N 39°09' E 003°43'1020.9
2018-May-12 08:00N 39°04' E 003°32'1021.0
2018-May-12 07:30N 38°58' E 003°20'1020.8
2018-May-12 07:00N 38°53' E 003°09'1120.6
2018-May-12 06:27N 38°47' E 002°56'920.9
2018-May-12 06:00N 38°42' E 002°46'1320.9
2018-May-12 05:24N 38°36' E 002°32'921.1
2018-May-12 04:58N 38°31' E 002°22'1021.2
2018-May-12 04:30N 38°26' E 002°11'7220.4
2018-May-12 01:00N 37°48' E 000°54'2124.3 1017.0 5.4 18.016.316.0
2018-May-12 00:09N 37°38' E 000°31'321.5
2018-May-12 00:00N 37°37' E 000°28'1121.2
2018-May-11 23:28N 37°31' E 000°16'1020.9
2018-May-11 23:00N 37°26' E 000°05'1120.7
2018-May-11 22:29N 37°20' W 000°07'2020.9
2018-May-11 21:31N 37°10' W 000°28'721.2
2018-May-11 21:11N 37°07' W 000°36'421.4
2018-May-11 21:00N 37°04' W 000°40'8656.9
2018-May-11 21:00N 37°06' W 000°30'1937.2 180 / 81011.010.8 18.0 13.0
2018-May-11 20:29N 36°59' W 000°52'1221.0
2018-May-11 19:55N 36°53' W 001°05'23634.0
2018-May-11 13:00N 36°30' E 003°48'43437.7 230 / 91017.010.8 18.016.316.0
2018-May-11 01:29N 36°04' W 005°10'919.9
2018-May-11 01:00N 35°60' W 005°20'23219.3
2018-May-10 13:00N 34°42' W 009°48'   360 / 221016.010.8 16.012.414.0

Dump ship's entire track history